Terminal Aerodrome Forecast
Issued by NWS

Home | Current Version | Previous Version | Text Only | Print | Product List | Glossary On
Versions: 1 2 3 4 5 6 7 8 9 10 11 12 13 14 15 16 17
000
FTUS44 KLZK 262300
TAFBPK
TAF
KBPK 262320Z 2700/2724 16009KT P6SM VCSH BKN015 OVC035
      WS020/19045KT
      TEMPO 2700/2704 4SM -RADZ BR OVC012
     FM270400 16004KT 5SM -DZ BR VCSH BKN008 WS020/19045KT
     FM271300 VRB05KT 5SM -RADZ BR OVC007
     FM271700 32007KT P6SM VCSH OVC012=

USA.gov is the U.S. government's official web portal to all federal, state and local government web resources and services.